Time;durP1;ratioP1;P1;durP2;ratioP2;P2;SDS_P1;SDS_P2;PMS_P1;PMS_P2;Temp;Humidity;BMP_temperature;BMP_pressure;BME280_temperature;BME280_humidity;BME280_pressure;Samples;Min_cycle;Max_cycle;Signal;HPM_P1;HPM_P2
2023/03/25 00:01:12;;;;;;;9.85;3.00;;;9.90;99.90;;;;;;6241504;23;20086;-78
2023/03/25 00:03:42;;;;;;;14.70;2.88;;;9.90;99.90;;;;;;6241245;23;20016;-78
2023/03/25 00:06:11;;;;;;;9.52;3.00;;;9.90;99.90;;;;;;6243245;22;20396;-78
2023/03/25 00:08:39;;;;;;;13.90;3.03;;;9.90;99.90;;;;;;6242789;22;20019;-78
2023/03/25 00:11:07;;;;;;;15.82;3.60;;;9.90;99.90;;;;;;6217321;23;20019;-78
2023/03/25 00:13:34;;;;;;;16.45;3.90;;;9.90;99.90;;;;;;6245501;22;20016;-79
2023/03/25 00:16:01;;;;;;;16.15;3.63;;;9.90;99.90;;;;;;6243296;23;20018;-78
2023/03/25 00:18:32;;;;;;;14.93;2.97;;;10.00;99.90;;;;;;6243211;23;20019;-78
2023/03/25 00:21:01;;;;;;;16.88;3.78;;;9.90;99.90;;;;;;6243485;23;20066;-78
2023/03/25 00:23:28;;;;;;;16.88;3.38;;;9.90;99.90;;;;;;6242857;23;20016;-78
2023/03/25 00:25:58;;;;;;;14.88;3.75;;;9.90;99.90;;;;;;6245061;22;20012;-78
2023/03/25 00:28:32;;;;;;;13.63;3.40;;;9.90;99.90;;;;;;6246687;22;20012;-78
2023/03/25 00:31:06;;;;;;;13.32;3.58;;;9.90;99.90;;;;;;6221479;23;20111;-79
2023/03/25 00:33:34;;;;;;;20.10;4.13;;;9.90;99.90;;;;;;6247564;23;20404;-78
2023/03/25 00:36:00;;;;;;;16.50;3.50;;;9.90;99.90;;;;;;6220828;23;20443;-78
2023/03/25 00:38:33;;;;;;;15.18;3.33;;;9.90;99.90;;;;;;6217345;23;20008;-78
2023/03/25 00:41:21;;;;;;;17.45;4.22;;;9.90;99.90;;;;;;6243128;23;20023;-78
2023/03/25 00:43:47;;;;;;;19.88;3.83;;;9.80;99.90;;;;;;6245225;22;20008;-78
2023/03/25 00:46:16;;;;;;;21.30;3.50;;;9.80;99.90;;;;;;6243532;23;20082;-79
2023/03/25 00:48:42;;;;;;;23.33;4.40;;;9.80;99.90;;;;;;6243044;23;20012;-80
2023/03/25 00:51:08;;;;;;;19.38;4.05;;;10.00;99.90;;;;;;6243519;23;20019;-78
2023/03/25 00:53:38;;;;;;;20.30;3.70;;;9.90;99.90;;;;;;6217202;23;20020;-78
2023/03/25 00:56:04;;;;;;;19.50;3.92;;;9.90;99.90;;;;;;6217819;23;20094;-78
2023/03/25 00:58:30;;;;;;;17.23;3.47;;;9.80;99.90;;;;;;6217623;23;20062;-78
2023/03/25 01:00:56;;;;;;;21.05;3.45;;;9.70;99.90;;;;;;6244729;22;20419;-78
2023/03/25 01:03:27;;;;;;;20.42;4.45;;;9.70;99.90;;;;;;6242903;23;20016;-78
2023/03/25 01:05:54;;;;;;;16.17;3.92;;;9.60;99.90;;;;;;6217605;23;20350;-78
2023/03/25 01:08:24;;;;;;;16.58;3.58;;;9.50;99.90;;;;;;6242621;23;20484;-78
2023/03/25 01:10:53;;;;;;;16.13;4.30;;;9.60;99.90;;;;;;6244823;22;20340;-78
2023/03/25 01:13:20;;;;;;;15.77;3.78;;;9.40;99.90;;;;;;6242850;23;20091;-78
2023/03/25 01:15:46;;;;;;;22.60;3.95;;;9.30;99.90;;;;;;6244772;22;20008;-78
2023/03/25 01:18:12;;;;;;;17.50;3.83;;;9.20;99.90;;;;;;6217593;23;20083;-78
2023/03/25 01:20:41;;;;;;;18.60;4.30;;;9.20;99.90;;;;;;6217582;23;20016;-78
2023/03/25 01:23:08;;;;;;;18.02;4.18;;;9.10;99.90;;;;;;6243863;22;20030;-78
2023/03/25 01:25:34;;;;;;;20.13;4.20;;;9.10;99.90;;;;;;6243017;23;20008;-78
2023/03/25 01:28:00;;;;;;;21.17;4.03;;;9.00;99.90;;;;;;6217505;23;20078;-77
2023/03/25 01:30:26;;;;;;;18.05;4.10;;;9.30;99.90;;;;;;6243079;23;20415;-78
2023/03/25 01:32:52;;;;;;;16.90;4.15;;;9.10;99.90;;;;;;6242653;23;20078;-78
2023/03/25 01:35:17;;;;;;;20.55;4.22;;;9.00;99.90;;;;;;6244469;22;20012;-78
2023/03/25 01:37:46;;;;;;;20.35;4.13;;;9.00;99.90;;;;;;6241925;23;20012;-78
2023/03/25 01:40:18;;;;;;;19.52;4.38;;;9.00;99.90;;;;;;6242263;23;20012;-78
2023/03/25 01:42:45;;;;;;;14.38;3.97;;;9.00;99.90;;;;;;6217008;23;20008;-78
2023/03/25 01:45:24;;;;;;;19.00;3.95;;;9.20;99.90;;;;;;6242480;23;20095;-78
2023/03/25 01:48:01;;;;;;;18.52;4.40;;;8.90;99.90;;;;;;6242404;23;20018;-78
2023/03/25 01:50:28;;;;;;;15.73;3.90;;;8.90;99.90;;;;;;6216506;23;20012;-78
2023/03/25 01:52:56;;;;;;;16.52;3.65;;;8.90;99.90;;;;;;6217133;23;20011;-77
2023/03/25 01:55:22;;;;;;;18.38;4.13;;;8.90;99.90;;;;;;6242210;23;20026;-78
2023/03/25 01:57:53;;;;;;;13.98;3.72;;;8.90;99.90;;;;;;6217041;23;20091;-78
2023/03/25 02:00:20;;;;;;;21.98;3.92;;;8.90;99.90;;;;;;6216958;23;20012;-78
2023/03/25 02:02:46;;;;;;;18.40;4.20;;;8.90;99.90;;;;;;6241967;23;20031;-78
2023/03/25 02:05:24;;;;;;;17.27;4.10;;;8.80;99.90;;;;;;6216609;23;20016;-78
2023/03/25 02:07:51;;;;;;;21.27;5.00;;;8.80;99.90;;;;;;6217465;23;20030;-78
2023/03/25 02:10:18;;;;;;;19.92;4.82;;;8.90;99.90;;;;;;6216958;23;20012;-78
2023/03/25 02:12:44;;;;;;;18.65;4.43;;;8.80;99.90;;;;;;6242541;23;20012;-78
2023/03/25 02:15:13;;;;;;;20.52;5.35;;;8.80;99.90;;;;;;6216828;23;20343;-78
2023/03/25 02:17:56;;;;;;;19.73;4.38;;;8.80;99.90;;;;;;6242085;23;20450;-78
2023/03/25 02:20:39;;;;;;;21.27;4.85;;;8.80;99.90;;;;;;6216269;23;20100;-78
2023/03/25 02:24:01;;;;;;;19.88;4.40;;;8.80;99.90;;;;;;6216833;23;20086;-78
2023/03/25 02:27:03;;;;;;;22.20;4.85;;;8.80;99.90;;;;;;6242433;23;20012;-78
2023/03/25 02:29:57;;;;;;;21.98;4.43;;;8.80;99.90;;;;;;6242057;23;20008;-78
2023/03/25 02:32:41;;;;;;;;;;;8.80;99.90;;;;;;6217261;23;20012;-78
2023/03/25 02:35:30;;;;;;;20.98;4.63;;;8.80;99.90;;;;;;6243211;23;19986;-78
2023/03/25 02:38:08;;;;;;;22.90;4.68;;;8.80;99.90;;;;;;6243986;22;20019;-78
2023/03/25 02:40:51;;;;;;;24.20;4.55;;;8.80;99.90;;;;;;6216306;23;20028;-78
2023/03/25 02:43:23;;;;;;;27.75;4.80;;;8.80;99.90;;;;;;6241946;23;20016;-78
2023/03/25 02:45:56;;;;;;;24.75;6.20;;;8.80;99.90;;;;;;6242177;23;20015;-78
2023/03/25 02:48:38;;;;;;;25.38;4.70;;;8.80;99.90;;;;;;6242765;22;20406;-78
2023/03/25 02:51:09;;;;;;;23.27;5.50;;;8.80;99.90;;;;;;6243991;22;20012;-78
2023/03/25 02:53:38;;;;;;;24.92;4.57;;;8.80;99.90;;;;;;6243773;22;20043;-78
2023/03/25 02:56:08;;;;;;;30.75;6.25;;;8.80;99.90;;;;;;6241699;23;20012;-78
2023/03/25 02:58:34;;;;;;;25.27;5.90;;;8.80;99.90;;;;;;6243709;22;20012;-78
2023/03/25 03:01:00;;;;;;;23.15;5.53;;;9.10;99.90;;;;;;6216434;23;20008;-79
2023/03/25 03:03:27;;;;;;;28.58;5.63;;;8.80;99.90;;;;;;6240967;23;20312;-78
2023/03/25 03:05:57;;;;;;;26.52;4.85;;;8.70;99.90;;;;;;6242130;23;20018;-78
2023/03/25 03:08:47;;;;;;;27.55;5.90;;;8.80;99.90;;;;;;6241976;23;20008;-78
2023/03/25 03:11:47;;;;;;;29.45;5.72;;;8.70;99.90;;;;;;6241738;23;20047;-78
2023/03/25 03:14:35;;;;;;;28.92;5.70;;;8.80;99.90;;;;;;6243180;22;20375;-78
2023/03/25 03:17:17;;;;;;;28.42;5.05;;;8.70;99.90;;;;;;6241735;23;20451;-78
2023/03/25 03:20:03;;;;;;;28.10;5.50;;;8.70;99.90;;;;;;6243233;22;20083;-78
2023/03/25 03:22:52;;;;;;;27.83;6.78;;;8.70;99.90;;;;;;6242352;23;20092;-78
2023/03/25 03:25:34;;;;;;;21.42;5.30;;;8.70;99.90;;;;;;6216509;23;20005;-78
2023/03/25 03:28:15;;;;;;;26.05;5.15;;;8.70;99.90;;;;;;6216626;23;20087;-78
2023/03/25 03:30:50;;;;;;;27.38;5.90;;;8.80;99.90;;;;;;6241985;23;20097;-79
2023/03/25 03:33:28;;;;;;;26.27;5.25;;;8.70;99.90;;;;;;6241138;23;20016;-78
2023/03/25 03:36:05;;;;;;;26.92;5.80;;;8.70;99.90;;;;;;6243079;22;20386;-78
2023/03/25 03:38:40;;;;;;;24.58;5.80;;;8.70;99.90;;;;;;6216438;23;20119;-78
2023/03/25 03:41:09;;;;;;;23.27;5.82;;;8.70;99.90;;;;;;6241562;23;20016;-78
2023/03/25 03:43:50;;;;;;;24.65;6.18;;;8.70;99.90;;;;;;6243468;22;20076;-79
2023/03/25 03:46:23;;;;;;;26.67;5.72;;;8.70;99.90;;;;;;6216789;23;20031;-78
2023/03/25 03:48:53;;;;;;;24.45;5.53;;;8.60;99.90;;;;;;6245566;22;20339;-78
2023/03/25 03:51:35;;;;;;;22.50;5.18;;;8.60;99.90;;;;;;6218425;23;20016;-78
2023/03/25 03:54:13;;;;;;;20.10;5.25;;;8.70;99.90;;;;;;6243690;23;20461;-78
2023/03/25 03:56:54;;;;;;;18.92;4.93;;;8.60;99.90;;;;;;6245762;22;20012;-78
2023/03/25 03:59:34;;;;;;;26.90;5.13;;;8.60;99.90;;;;;;6218425;23;20012;-78
2023/03/25 04:02:04;;;;;;;24.58;5.18;;;8.60;99.90;;;;;;6242873;23;20016;-78
2023/03/25 04:04:33;;;;;;;26.08;5.60;;;8.60;99.90;;;;;;6243527;23;20023;-78
2023/03/25 04:07:14;;;;;;;25.20;5.88;;;8.50;99.90;;;;;;6245626;22;20016;-78
2023/03/25 04:10:17;;;;;;;21.35;5.25;;;8.50;99.90;;;;;;6245184;22;20432;-78
2023/03/25 04:12:51;;;;;;;23.93;5.50;;;8.60;99.90;;;;;;6243907;23;20031;-78
2023/03/25 04:15:17;;;;;;;23.65;5.35;;;8.50;99.90;;;;;;6243294;23;20274;-78
2023/03/25 04:17:43;;;;;;;24.52;5.22;;;8.60;99.90;;;;;;6218182;23;20012;-78
2023/03/25 04:20:23;;;;;;;23.75;6.25;;;8.60;99.90;;;;;;6245456;22;20046;-78
2023/03/25 04:22:50;;;;;;;23.95;5.63;;;8.60;99.90;;;;;;6245688;22;20005;-78
2023/03/25 04:25:17;;;;;;;26.80;5.40;;;8.60;99.90;;;;;;6244193;23;20070;-78
2023/03/25 04:27:44;;;;;;;27.50;5.50;;;8.60;99.90;;;;;;6243636;23;20036;-78
2023/03/25 04:30:10;;;;;;;24.48;5.10;;;8.60;99.90;;;;;;6222483;23;20059;-77
2023/03/25 04:32:39;;;;;;;21.25;4.88;;;8.60;99.90;;;;;;6248577;23;20008;-77
2023/03/25 04:35:05;;;;;;;22.60;5.63;;;8.60;99.90;;;;;;6249010;23;20013;-78
2023/03/25 04:37:32;;;;;;;20.38;4.47;;;8.60;99.90;;;;;;6246191;22;20443;-78
2023/03/25 04:39:59;;;;;;;23.02;5.35;;;8.80;99.90;;;;;;6218217;23;20008;-78
2023/03/25 04:42:31;;;;;;;25.05;6.20;;;8.60;99.90;;;;;;6218162;23;20015;-78
2023/03/25 04:44:57;;;;;;;23.23;5.50;;;8.60;99.90;;;;;;6242788;23;20058;-78
2023/03/25 04:47:24;;;;;;;22.17;5.90;;;8.60;99.90;;;;;;6243633;23;20039;-78
2023/03/25 04:49:50;;;;;;;23.23;5.63;;;8.60;99.90;;;;;;6217952;23;20004;-78
2023/03/25 04:52:16;;;;;;;26.88;6.15;;;8.50;99.90;;;;;;6243411;23;20422;-78
2023/03/25 04:54:45;;;;;;;25.52;5.78;;;8.50;99.90;;;;;;6243078;23;20012;-78
2023/03/25 04:57:11;;;;;;;26.95;6.25;;;8.50;99.90;;;;;;6242861;23;20012;-78
2023/03/25 04:59:40;;;;;;;22.23;5.85;;;8.50;99.90;;;;;;6242345;23;20027;-78
2023/03/25 05:02:06;;;;;;;22.88;6.40;;;8.50;99.90;;;;;;6244450;22;20091;-78
2023/03/25 05:04:32;;;;;;;28.13;6.40;;;8.50;99.90;;;;;;6217568;23;20051;-78
2023/03/25 05:06:58;;;;;;;28.67;7.13;;;8.50;99.90;;;;;;6242993;23;20363;-78
2023/03/25 05:09:24;;;;;;;23.77;6.03;;;8.50;99.90;;;;;;6244825;22;20023;-78
2023/03/25 05:11:52;;;;;;;24.90;5.78;;;8.50;99.90;;;;;;6244449;22;20016;-78
2023/03/25 05:14:20;;;;;;;25.52;5.97;;;8.50;99.90;;;;;;6242750;23;20016;-78
2023/03/25 05:16:46;;;;;;;29.25;7.50;;;8.50;99.90;;;;;;6242742;23;20053;-78
2023/03/25 05:19:17;;;;;;;24.15;6.53;;;8.50;99.90;;;;;;6217501;23;20016;-77
2023/03/25 05:21:43;;;;;;;23.25;5.75;;;8.50;99.90;;;;;;6217483;23;20039;-78
2023/03/25 05:24:12;;;;;;;24.20;6.03;;;8.50;99.90;;;;;;6217407;23;20008;-78
2023/03/25 05:26:40;;;;;;;23.27;6.07;;;8.50;99.90;;;;;;6242876;23;20012;-78
2023/03/25 05:29:14;;;;;;;23.70;6.18;;;8.40;99.90;;;;;;6242153;23;20098;-78
2023/03/25 05:31:44;;;;;;;23.95;6.45;;;8.50;99.90;;;;;;6244730;22;20023;-78
2023/03/25 05:34:10;;;;;;;28.38;6.95;;;8.40;99.90;;;;;;6217359;23;20019;-77
2023/03/25 05:36:35;;;;;;;28.05;5.70;;;8.50;99.90;;;;;;6244418;22;20020;-78
2023/03/25 05:39:03;;;;;;;27.60;6.55;;;8.50;99.90;;;;;;6217115;23;20342;-78
2023/03/25 05:41:32;;;;;;;27.17;6.55;;;8.50;99.90;;;;;;6244429;22;20047;-78
2023/03/25 05:43:59;;;;;;;28.63;6.60;;;8.50;99.90;;;;;;6216739;23;20118;-78
2023/03/25 05:46:28;;;;;;;30.10;7.18;;;8.50;99.90;;;;;;6242921;23;20008;-78
2023/03/25 05:48:59;;;;;;;29.45;6.32;;;8.50;99.90;;;;;;6217676;23;20089;-78
2023/03/25 05:51:26;;;;;;;27.60;6.22;;;8.90;99.90;;;;;;6217177;23;20082;-79
2023/03/25 05:53:54;;;;;;;26.95;6.00;;;8.60;99.90;;;;;;6217188;23;20043;-78
2023/03/25 05:56:23;;;;;;;27.25;6.75;;;8.60;99.90;;;;;;6242847;23;20111;-78
2023/03/25 05:58:50;;;;;;;27.63;6.28;;;8.60;99.90;;;;;;6241889;23;20095;-78
2023/03/25 06:01:18;;;;;;;29.13;6.35;;;8.60;99.90;;;;;;6244263;22;20047;-78
2023/03/25 06:03:44;;;;;;;33.03;6.10;;;8.60;99.90;;;;;;6262785;22;20020;-78
2023/03/25 06:06:12;;;;;;;32.72;6.38;;;8.60;99.90;;;;;;6247416;22;20406;-79
2023/03/25 06:08:57;;;;;;;30.15;6.40;;;8.60;99.90;;;;;;6247778;22;20011;-79
2023/03/25 06:11:23;;;;;;;27.55;5.80;;;8.60;99.90;;;;;;6246691;22;20077;-78
2023/03/25 06:13:48;;;;;;;26.65;5.65;;;8.60;99.90;;;;;;6274830;22;20023;-78
2023/03/25 06:16:20;;;;;;;31.52;6.57;;;8.80;99.90;;;;;;6247142;22;20023;-78
2023/03/25 06:18:49;;;;;;;29.67;6.05;;;8.60;99.90;;;;;;6247230;22;20079;-78
2023/03/25 06:21:17;;;;;;;28.75;6.05;;;8.60;99.90;;;;;;6274849;22;20011;-78
2023/03/25 06:23:43;;;;;;;24.33;5.85;;;8.70;99.90;;;;;;6246819;22;20339;-78
2023/03/25 06:26:09;;;;;;;28.95;6.60;;;8.90;99.90;;;;;;6272275;22;20138;-78
2023/03/25 06:28:35;;;;;;;25.25;5.78;;;8.70;99.90;;;;;;6221599;22;20070;-78
2023/03/25 06:31:05;;;;;;;31.75;6.28;;;8.80;99.90;;;;;;6274594;22;20023;-78
2023/03/25 06:33:31;;;;;;;28.15;5.65;;;8.80;99.90;;;;;;6221765;22;20042;-77
2023/03/25 06:35:57;;;;;;;30.95;6.28;;;8.80;99.90;;;;;;6247353;22;20404;-78
2023/03/25 06:38:23;;;;;;;32.15;6.97;;;8.90;99.90;;;;;;6274824;22;20004;-78
2023/03/25 06:40:48;;;;;;;31.65;6.30;;;8.90;99.90;;;;;;6221169;22;20235;-78
2023/03/25 06:43:15;;;;;;;27.63;6.30;;;8.90;99.90;;;;;;6247511;22;20310;-78
2023/03/25 06:45:41;;;;;;;37.53;6.47;;;8.80;99.90;;;;;;6221634;22;20026;-77
2023/03/25 06:48:07;;;;;;;24.17;5.90;;;8.80;99.90;;;;;;6222137;22;20094;-78
2023/03/25 06:50:33;;;;;;;32.13;6.25;;;8.80;99.90;;;;;;6247594;22;20015;-79
2023/03/25 06:53:02;;;;;;;28.38;5.43;;;8.90;99.90;;;;;;6222031;22;20477;-78
2023/03/25 06:55:28;;;;;;;32.88;6.85;;;8.80;99.90;;;;;;6274011;22;20018;-78
2023/03/25 06:57:55;;;;;;;32.05;6.38;;;8.80;99.90;;;;;;6221815;22;20439;-79
2023/03/25 07:00:23;;;;;;;26.05;5.53;;;8.80;99.90;;;;;;6221368;22;20012;-79
2023/03/25 07:02:49;;;;;;;23.95;5.88;;;8.90;99.90;;;;;;6274080;22;20008;-79
2023/03/25 07:05:15;;;;;;;33.15;7.15;;;8.80;99.90;;;;;;6247090;22;20015;-78
2023/03/25 07:07:41;;;;;;;26.15;5.95;;;8.80;99.90;;;;;;6246974;22;20177;-79
2023/03/25 07:10:07;;;;;;;29.63;6.93;;;8.80;99.90;;;;;;6273501;22;20012;-78
2023/03/25 07:12:34;;;;;;;29.17;6.55;;;8.80;99.90;;;;;;6246713;22;20482;-78
2023/03/25 07:14:59;;;;;;;27.52;5.43;;;8.80;99.90;;;;;;6273817;22;20018;-78
2023/03/25 07:17:25;;;;;;;29.48;5.65;;;8.80;99.90;;;;;;6274410;22;20082;-78
2023/03/25 07:19:51;;;;;;;25.45;5.25;;;8.90;99.90;;;;;;6246167;22;20016;-78
2023/03/25 07:22:17;;;;;;;24.58;5.68;;;8.90;99.90;;;;;;6274429;22;20025;-79
2023/03/25 07:24:46;;;;;;;29.35;5.50;;;9.10;99.90;;;;;;6246665;22;20022;-79
2023/03/25 07:27:15;;;;;;;30.08;5.95;;;9.20;99.90;;;;;;6221371;22;20012;-79
2023/03/25 07:29:41;;;;;;;21.52;5.25;;;9.30;99.90;;;;;;6247318;22;20011;-79
2023/03/25 07:32:06;;;;;;;28.40;5.75;;;9.30;99.90;;;;;;6274067;22;20092;-78
2023/03/25 07:34:32;;;;;;;22.98;4.93;;;9.40;99.90;;;;;;6246421;22;20054;-78
2023/03/25 07:37:02;;;;;;;32.28;5.57;;;9.50;99.90;;;;;;6246510;22;20526;-78
2023/03/25 07:39:28;;;;;;;28.52;6.65;;;9.50;99.90;;;;;;6245862;22;20663;-79
2023/03/25 07:41:54;;;;;;;23.73;4.35;;;9.50;99.90;;;;;;6246709;22;20004;-79
2023/03/25 07:44:20;;;;;;;21.30;5.05;;;9.50;99.90;;;;;;6274369;22;20007;-79
2023/03/25 07:46:47;;;;;;;28.50;5.90;;;9.50;99.90;;;;;;6246030;22;20008;-78
2023/03/25 07:49:17;;;;;;;24.95;4.82;;;9.50;99.90;;;;;;6246477;22;20019;-78
2023/03/25 07:51:45;;;;;;;21.52;5.22;;;9.40;99.90;;;;;;6243948;22;20022;-78
2023/03/25 07:54:11;;;;;;;30.35;5.80;;;9.40;99.90;;;;;;6245850;22;20055;-78
2023/03/25 07:56:37;;;;;;;23.15;5.78;;;9.20;99.90;;;;;;6246269;22;20065;-78
2023/03/25 07:59:04;;;;;;;24.42;4.35;;;9.10;99.90;;;;;;6246598;22;20016;-78
2023/03/25 08:01:30;;;;;;;25.98;5.10;;;9.10;99.90;;;;;;6246238;22;20016;-78
2023/03/25 08:03:56;;;;;;;25.85;5.32;;;9.10;99.90;;;;;;6246154;22;20019;-77
2023/03/25 08:06:23;;;;;;;21.55;4.97;;;9.10;99.90;;;;;;6246267;22;20020;-78
2023/03/25 08:08:48;;;;;;;23.23;5.35;;;9.00;99.90;;;;;;6246286;22;20007;-77
2023/03/25 08:11:14;;;;;;;25.95;5.50;;;9.00;99.90;;;;;;6273461;22;20097;-77
2023/03/25 08:13:40;;;;;;;21.15;5.65;;;9.00;99.90;;;;;;6246466;22;20047;-78
2023/03/25 08:16:13;;;;;;;19.13;4.70;;;9.00;99.90;;;;;;6246869;22;20434;-78
2023/03/25 08:18:43;;;;;;;21.98;5.03;;;9.00;99.90;;;;;;6246242;22;20019;-78
2023/03/25 08:21:10;;;;;;;20.98;4.80;;;8.90;99.90;;;;;;6273574;22;20011;-78
2023/03/25 08:23:36;;;;;;;26.08;5.72;;;9.00;99.90;;;;;;6220711;22;20021;-77
2023/03/25 08:26:04;;;;;;;16.63;3.80;;;8.90;99.90;;;;;;6221275;22;20008;-77
2023/03/25 08:28:30;;;;;;;17.65;4.07;;;8.80;99.90;;;;;;6273823;22;20073;-77
2023/03/25 08:30:57;;;;;;;16.33;4.00;;;8.80;99.90;;;;;;6274196;22;20090;-77
2023/03/25 08:33:33;;;;;;;19.48;4.45;;;8.70;99.90;;;;;;6223181;22;20008;-77
2023/03/25 08:36:00;;;;;;;16.83;3.65;;;8.70;99.90;;;;;;6251920;22;20022;-77
2023/03/25 08:38:30;;;;;;;17.92;4.35;;;8.70;99.90;;;;;;6280158;22;20082;-78
2023/03/25 08:41:05;;;;;;;21.05;4.80;;;8.70;99.90;;;;;;6228333;22;20023;-77
2023/03/25 08:43:31;;;;;;;26.05;5.93;;;8.90;99.90;;;;;;6223186;22;20012;-78
2023/03/25 08:45:56;;;;;;;26.65;6.10;;;9.00;99.90;;;;;;6248542;22;20484;-78
2023/03/25 08:48:23;;;;;;;24.33;5.88;;;9.20;99.90;;;;;;6222828;22;20066;-78
2023/03/25 08:50:49;;;;;;;26.85;5.95;;;9.60;99.90;;;;;;6274928;22;20082;-78
2023/03/25 08:53:15;;;;;;;23.60;5.78;;;9.80;99.90;;;;;;6247985;22;20046;-78
2023/03/25 08:55:40;;;;;;;27.73;6.22;;;9.80;99.90;;;;;;6247814;22;20011;-78
2023/03/25 08:58:07;;;;;;;25.08;5.72;;;9.70;99.90;;;;;;6247936;22;20012;-78
2023/03/25 09:00:34;;;;;;;22.55;5.97;;;9.70;99.90;;;;;;6248023;22;20050;-78
2023/03/25 09:03:02;;;;;;;25.50;5.50;;;9.70;99.90;;;;;;6222791;22;20016;-78
2023/03/25 09:05:28;;;;;;;29.92;6.15;;;9.70;99.90;;;;;;6247766;22;20016;-78
2023/03/25 09:07:53;;;;;;;25.95;5.72;;;9.70;99.90;;;;;;6248477;22;20082;-78
2023/03/25 09:10:19;;;;;;;34.55;5.40;;;9.70;99.90;;;;;;6275739;22;20018;-78
2023/03/25 09:12:44;;;;;;;31.52;6.82;;;9.80;99.90;;;;;;6248017;22;20003;-78
2023/03/25 09:15:11;;;;;;;25.70;5.70;;;9.90;99.90;;;;;;6247957;22;20022;-78
2023/03/25 09:17:38;;;;;;;29.05;7.18;;;10.10;99.90;;;;;;6222789;22;20449;-78
2023/03/25 09:20:07;;;;;;;23.63;5.72;;;10.20;99.90;;;;;;6222124;22;20063;-78
2023/03/25 09:22:34;;;;;;;27.42;5.63;;;10.20;99.90;;;;;;6223144;22;20149;-78
2023/03/25 09:25:00;;;;;;;24.67;5.35;;;10.30;99.90;;;;;;6247964;22;20111;-78
2023/03/25 09:27:26;;;;;;;27.13;5.72;;;10.30;99.90;;;;;;6247780;22;20039;-78
2023/03/25 09:29:51;;;;;;;19.70;5.18;;;10.50;99.90;;;;;;6248199;22;20098;-78
2023/03/25 09:32:18;;;;;;;24.88;5.13;;;10.60;99.90;;;;;;6247889;22;20086;-78
2023/03/25 09:34:44;;;;;;;24.05;5.18;;;10.70;99.90;;;;;;6274282;22;20019;-78
2023/03/25 09:37:10;;;;;;;23.90;4.80;;;10.70;99.90;;;;;;6222430;22;20011;-78
2023/03/25 09:39:36;;;;;;;21.23;5.00;;;10.80;99.90;;;;;;6274740;22;20435;-78
2023/03/25 09:42:23;;;;;;;21.48;4.57;;;11.00;99.90;;;;;;6247648;22;20015;-77
2023/03/25 09:45:15;;;;;;;22.50;4.82;;;11.30;99.90;;;;;;6247805;22;20058;-77
2023/03/25 09:47:55;;;;;;;21.00;5.10;;;11.30;99.90;;;;;;6222284;22;20050;-78
2023/03/25 09:50:23;;;;;;;19.70;4.82;;;11.30;99.90;;;;;;6247022;22;20090;-77
2023/03/25 09:53:13;;;;;;;18.45;4.72;;;11.30;99.90;;;;;;6275219;22;20096;-78
2023/03/25 09:55:45;;;;;;;20.35;4.40;;;11.40;99.90;;;;;;6275223;22;20068;-78
2023/03/25 09:58:36;;;;;;;19.42;4.70;;;11.60;99.90;;;;;;6247405;22;20031;-77
2023/03/25 10:01:30;;;;;;;16.92;4.13;;;11.70;99.90;;;;;;6222139;22;20023;-77
2023/03/25 10:04:07;;;;;;;15.48;4.03;;;11.60;99.90;;;;;;6273940;22;20016;-77
2023/03/25 10:06:41;;;;;;;23.02;5.63;;;11.50;99.90;;;;;;6222462;22;20019;-78
2023/03/25 10:09:31;;;;;;;24.95;5.00;;;11.40;99.90;;;;;;6247550;22;20081;-77
2023/03/25 10:12:12;;;;;;;19.80;4.20;;;11.50;99.90;;;;;;6274572;22;20423;-77
2023/03/25 10:15:02;;;;;;;19.70;4.50;;;11.80;99.90;;;;;;6274750;22;20079;-77
2023/03/25 10:17:47;;;;;;;20.23;4.30;;;11.70;99.90;;;;;;6274507;22;20010;-77
2023/03/25 10:20:20;;;;;;;18.70;4.63;;;11.80;99.90;;;;;;6274548;22;20012;-76
2023/03/25 10:22:52;;;;;;;19.25;4.40;;;11.80;99.90;;;;;;6274522;22;20015;-76
2023/03/25 10:25:22;;;;;;;19.15;3.95;;;11.60;99.90;;;;;;6274733;22;20023;-76
2023/03/25 10:27:52;;;;;;;15.95;4.07;;;11.50;99.90;;;;;;6247195;22;20049;-77
2023/03/25 10:30:22;;;;;;;23.92;4.63;;;11.50;99.90;;;;;;6274590;22;20008;-77
2023/03/25 10:32:55;;;;;;;20.02;4.70;;;11.60;99.90;;;;;;6274188;22;20015;-77
2023/03/25 10:35:29;;;;;;;19.77;4.82;;;11.70;99.90;;;;;;6222122;22;20020;-79
2023/03/25 10:38:06;;;;;;;19.95;4.95;;;11.70;99.90;;;;;;6247382;22;20445;-77
2023/03/25 10:40:48;;;;;;;18.77;4.40;;;11.60;99.90;;;;;;6274149;22;20514;-78
2023/03/25 10:43:20;;;;;;;20.23;5.15;;;11.50;99.90;;;;;;6246949;22;20011;-75
2023/03/25 10:45:47;;;;;;;25.88;5.93;;;11.40;99.90;;;;;;6247421;22;20019;-78
2023/03/25 10:48:21;;;;;;;20.45;4.97;;;11.20;99.90;;;;;;6270954;22;20015;-76
2023/03/25 10:50:48;;;;;;;18.75;5.13;;;11.20;99.90;;;;;;6246227;22;20456;-80
2023/03/25 10:53:21;;;;;;;21.95;5.93;;;11.10;99.90;;;;;;6246951;22;20141;-83
2023/03/25 10:55:54;;;;;;;25.85;5.70;;;11.20;99.90;;;;;;6221223;22;20164;-78
2023/03/25 10:58:20;;;;;;;20.73;5.20;;;11.30;99.90;;;;;;6247419;22;20015;-78
2023/03/25 11:00:47;;;;;;;25.88;4.85;;;11.30;99.90;;;;;;6221758;22;20323;-78
2023/03/25 11:03:22;;;;;;;19.38;4.55;;;11.20;99.90;;;;;;6273291;22;20316;-78
2023/03/25 11:05:48;;;;;;;27.88;5.40;;;11.30;99.90;;;;;;6273872;22;20454;-77
2023/03/25 11:08:15;;;;;;;25.27;5.07;;;11.40;99.90;;;;;;6274021;22;20011;-78
2023/03/25 11:10:47;;;;;;;24.48;5.13;;;11.20;99.90;;;;;;6274133;22;20018;-78
2023/03/25 11:13:20;;;;;;;20.08;4.65;;;11.20;99.90;;;;;;6274503;22;20003;-78
2023/03/25 11:15:47;;;;;;;;;;;11.20;99.90;;;;;;6274358;22;20192;-78
2023/03/25 11:18:21;;;;;;;18.92;5.20;;;11.20;99.90;;;;;;6273827;22;19993;-77
2023/03/25 11:20:59;;;;;;;22.20;4.72;;;11.30;99.90;;;;;;6246526;22;20137;-79
2023/03/25 11:23:29;;;;;;;24.40;5.38;;;11.30;99.90;;;;;;6247092;22;20003;-78
2023/03/25 11:26:05;;;;;;;24.58;5.18;;;11.50;99.90;;;;;;6246611;22;20020;-78
2023/03/25 11:28:48;;;;;;;18.25;5.25;;;11.50;99.90;;;;;;6274196;22;20082;-78
2023/03/25 11:31:20;;;;;;;22.47;4.70;;;11.50;99.90;;;;;;6273705;22;20043;-78
2023/03/25 11:34:02;;;;;;;18.52;4.43;;;11.50;99.90;;;;;;6273874;22;20227;-78
2023/03/25 11:36:30;;;;;;;18.00;4.55;;;11.50;99.90;;;;;;6247233;22;20015;-77
2023/03/25 11:39:03;;;;;;;21.58;4.97;;;11.70;99.90;;;;;;6274128;22;20019;-78
2023/03/25 11:41:35;;;;;;;19.58;4.45;;;11.70;99.90;;;;;;6246657;22;20099;-78
2023/03/25 11:44:04;;;;;;;21.88;4.20;;;11.60;99.90;;;;;;6246410;22;20008;-78
2023/03/25 11:46:32;;;;;;;21.20;4.68;;;11.60;99.90;;;;;;6245892;22;20011;-78
2023/03/25 11:49:08;;;;;;;19.50;4.70;;;11.80;99.90;;;;;;6246247;22;20065;-77
2023/03/25 11:51:35;;;;;;;18.30;4.55;;;11.70;99.90;;;;;;6246388;22;20012;-77
2023/03/25 11:54:08;;;;;;;20.05;4.20;;;11.60;99.90;;;;;;6221506;22;20026;-78
2023/03/25 11:56:37;;;;;;;16.33;4.03;;;11.60;99.90;;;;;;6221474;22;20023;-78
2023/03/25 11:59:08;;;;;;;14.27;3.88;;;11.60;99.90;;;;;;6246571;22;20023;-77
2023/03/25 12:01:41;;;;;;;17.77;4.40;;;11.70;99.90;;;;;;6274051;22;20109;-78
2023/03/25 12:04:16;;;;;;;17.27;3.92;;;11.80;99.90;;;;;;6273646;22;20019;-78
2023/03/25 12:07:07;;;;;;;15.02;3.90;;;11.90;99.90;;;;;;6274944;22;20016;-78
2023/03/25 12:09:33;;;;;;;15.20;3.72;;;12.00;99.90;;;;;;6248772;22;20016;-77
2023/03/25 12:12:16;;;;;;;17.50;3.95;;;12.10;99.90;;;;;;6248621;22;20334;-77
2023/03/25 12:15:02;;;;;;;13.27;3.20;;;12.30;99.90;;;;;;6244537;22;20082;-78
2023/03/25 12:17:45;;;;;;;12.60;3.15;;;12.40;99.90;;;;;;6247469;22;20090;-78
2023/03/25 12:20:23;;;;;;;;;;;12.40;99.90;;;;;;6275998;22;20477;-78
2023/03/25 12:23:23;;;;;;;16.45;3.60;;;12.50;99.90;;;;;;6248625;22;19986;-78
2023/03/25 12:26:09;;;;;;;15.35;3.78;;;12.70;99.90;;;;;;6222264;22;20043;-77
2023/03/25 12:29:17;;;;;;;14.82;3.60;;;12.80;99.90;;;;;;6247969;22;20012;-76
2023/03/25 12:32:12;;;;;;;16.58;3.42;;;12.80;99.90;;;;;;6222958;22;20164;-76
2023/03/25 12:34:58;;;;;;;15.48;3.25;;;12.90;99.90;;;;;;6276000;22;20016;-77
2023/03/25 12:37:38;;;;;;;16.05;4.07;;;12.60;99.90;;;;;;6223095;22;20011;-78
2023/03/25 12:40:36;;;;;;;14.65;3.97;;;12.50;99.90;;;;;;6222966;22;20023;-77
2023/03/25 12:43:34;;;;;;;16.85;4.10;;;12.50;99.90;;;;;;6161698;22;20027;-77
2023/03/25 12:46:15;;;;;;;13.48;3.53;;;12.70;99.90;;;;;;6250914;22;20039;-78
2023/03/25 12:49:10;;;;;;;17.30;4.05;;;13.00;99.90;;;;;;6224487;22;20031;-77
2023/03/25 12:51:59;;;;;;;15.45;3.63;;;13.10;99.90;;;;;;6278704;22;20015;-76
2023/03/25 12:55:02;;;;;;;17.63;4.97;;;13.10;99.90;;;;;;6273068;22;20035;-78
2023/03/25 12:57:46;;;;;;;15.25;3.10;;;13.10;99.90;;;;;;6245719;22;20018;-77
2023/03/25 13:00:36;;;;;;;15.95;3.80;;;13.00;99.90;;;;;;6245693;22;20454;-76
2023/03/25 13:03:29;;;;;;;14.75;3.88;;;13.00;99.90;;;;;;6245750;22;20033;-78
2023/03/25 13:06:05;;;;;;;19.63;4.38;;;13.10;99.90;;;;;;6245950;22;20008;-77
2023/03/25 13:08:50;;;;;;;15.93;3.90;;;13.30;99.90;;;;;;6245526;22;20030;-78
2023/03/25 13:11:38;;;;;;;16.73;4.28;;;13.30;99.90;;;;;;6273724;22;20012;-78